Presidente Juscelino Kubitschek International Airport

SBBR · Distrito Federal, Brasil

METAR pasados SBBR · Aeropuerto Internacional Presidente Juscelino Kubitschek

A continuación puedes ver los METAR de los últimos días. Selecciona un año para ver los METAR más antiguos, desde el año 2007 en adelante.

29 de mayo de 2024

Hora Código Tiempo Temp. Visibilidad Cielo nuboso Viento METAR/SPECI
11:00
V
25 °C 10 km+ - 110° 110° 7 kt METAR SBBR 291400Z 11007KT 9999 FEW020 25/16 Q1023
10:00
V
23 °C 10 km+ - 170° 170° 8 kt METAR SBBR 291300Z 17008KT 150V210 CAVOK 23/16 Q1024
09:00
V
21 °C 10 km+ - 140° 140° 5 kt METAR SBBR 291200Z 14005KT CAVOK 21/17 Q1024
08:11
V
18 °C 10 km+ - 210° 210° 3 kt METAR SBBR 291111Z 21003KT 9999 FEW002 18/17 Q1023
08:00
L
17 °C 5 km 200 ft 210° 210° 3 kt METAR SBBR 291100Z 21003KT 170V230 5000 BR BKN002 17/17 Q1023
07:00
L
16 °C 500 m 400 ft 180° 180° 3 kt METAR SBBR 291000Z 18003KT 0500 R11R/0550 R29R/0900 R29L/1100 R11L/P2000 FG BKN004 16/16 Q1022
06:10
I
16 °C 6 km 500 ft Var Var 1 kt METAR SBBR 290910Z VRB01KT 6000 BKN005 16/16 Q1022
06:00
V
16 °C 10 km+ - Var Var 2 kt METAR SBBR 290900Z VRB02KT 9999 SCT005 16/16 Q1022
05:00
V
16 °C 10 km+ - Var Var 2 kt METAR SBBR 290800Z VRB02KT CAVOK 16/16 Q1021
04:00
V
16 °C 10 km+ - 280° 280° 3 kt METAR SBBR 290700Z 28003KT 230V300 CAVOK 16/16 Q1021
03:00
V
18 °C 10 km+ - 220° 220° 3 kt METAR SBBR 290600Z 22003KT 180V260 CAVOK 18/17 Q1021
02:00
V
18 °C 10 km+ - 210° 210° 3 kt METAR SBBR 290500Z 21003KT 160V240 CAVOK 18/17 Q1022
01:00
V
19 °C 10 km+ - 200° 200° 7 kt METAR SBBR 290400Z 20007KT CAVOK 19/16 Q1022
00:00
V
20 °C 10 km+ - 180° 180° 7 kt METAR SBBR 290300Z 18007KT CAVOK 20/16 Q1023

28 de mayo de 2024

Hora Código Tiempo Temp. Visibilidad Cielo nuboso Viento METAR/SPECI
23:00
V
20 °C 10 km+ - 170° 170° 5 kt METAR SBBR 290200Z 17005KT 140V230 CAVOK 20/15 Q1023
22:00
V
20 °C 10 km+ - 190° 190° 3 kt METAR SBBR 290100Z 19003KT 130V240 CAVOK 20/14 Q1022
21:00
V
21 °C 10 km+ - 200° 200° 4 kt METAR SBBR 290000Z 20004KT CAVOK 21/13 Q1022
20:00
V
22 °C 10 km+ - 240° 240° 3 kt METAR SBBR 282300Z 24003KT 210V270 CAVOK 22/14 Q1021
19:00
V
24 °C 10 km+ - 150° 150° 5 kt METAR SBBR 282200Z 15005KT CAVOK 24/13 Q1021
18:00
V
26 °C 10 km+ - 140° 140° 6 kt METAR SBBR 282100Z 14006KT CAVOK 26/13 Q1021
15:00
V
27 °C 10 km+ - 130° 130° 8 kt METAR SBBR 281800Z 13008KT 100V210 CAVOK 27/12 Q1020
14:00
V
27 °C 10 km+ - 110° 110° 6 kt METAR SBBR 281700Z 11006KT 070V140 9999 FEW045 27/11 Q1021
13:00
V
27 °C 10 km+ - 150° 150° 6 kt METAR SBBR 281600Z 15006KT 070V190 CAVOK 27/12 Q1022
12:00
V
27 °C 10 km+ - Var Var 3 kt METAR SBBR 281500Z VRB03KT CAVOK 27/14 Q1023
11:00
V
25 °C 10 km+ - 060° 060° 7 kt METAR SBBR 281400Z 06007KT 030V120 CAVOK 25/15 Q1023
10:00
V
23 °C 10 km+ - 090° 090° 8 kt METAR SBBR 281300Z 09008KT 060V120 CAVOK 23/15 Q1024
09:00
V
21 °C 10 km+ - 090° 090° 3 kt METAR SBBR 281200Z 09003KT 060V140 CAVOK 21/14 Q1024
08:00
V
17 °C 10 km+ - Var Var 2 kt METAR SBBR 281100Z VRB02KT CAVOK 17/14 Q1023
07:00
V
15 °C 10 km+ - 360° 360° 0 kt METAR SBBR 281000Z 00000KT CAVOK 15/12 Q1022
06:00
V
14 °C 10 km+ - 270° 270° 2 kt METAR SBBR 280900Z 27002KT CAVOK 14/13 Q1022
05:00
V
14 °C 10 km+ - Var Var 2 kt METAR SBBR 280800Z VRB02KT CAVOK 14/13 Q1022
04:00
V
14 °C 10 km+ - 280° 280° 2 kt METAR SBBR 280700Z 28002KT CAVOK 14/13 Q1021
03:00
V
16 °C 10 km+ - 210° 210° 2 kt METAR SBBR 280600Z 21002KT CAVOK 16/13 Q1021
02:00
V
15 °C 10 km+ - 250° 250° 1 kt METAR SBBR 280500Z 25001KT CAVOK 15/13 Q1022
01:00
V
15 °C 10 km+ - 250° 250° 2 kt METAR SBBR 280400Z 25002KT CAVOK 15/14 Q1022
00:00
V
16 °C 10 km+ - Var Var 2 kt METAR SBBR 280300Z VRB02KT CAVOK 16/13 Q1022

27 de mayo de 2024

Hora Código Tiempo Temp. Visibilidad Cielo nuboso Viento METAR/SPECI
23:00
V
17 °C 10 km+ - 300° 300° 1 kt METAR SBBR 280200Z 30001KT CAVOK 17/13 Q1022
22:00
V
19 °C 10 km+ - 070° 070° 2 kt METAR SBBR 280100Z 07002KT CAVOK 19/13 Q1022
21:00
V
20 °C 10 km+ - 240° 240° 2 kt METAR SBBR 280000Z 24002KT CAVOK 20/13 Q1022
20:00
V
23 °C 10 km+ - 150° 150° 3 kt METAR SBBR 272300Z 15003KT CAVOK 23/13 Q1022
19:00
V
23 °C 10 km+ - 120° 120° 7 kt METAR SBBR 272200Z 12007KT CAVOK 23/14 Q1021
18:00
V
25 °C 10 km+ - 120° 120° 6 kt METAR SBBR 272100Z 12006KT CAVOK 25/14 Q1021
17:00
V
27 °C 10 km+ - 120° 120° 6 kt METAR SBBR 272000Z 12006KT 080V150 9999 FEW045 27/13 Q1021
16:00
V
27 °C 10 km+ - 110° 110° 4 kt METAR SBBR 271900Z 11004KT 010V160 9999 SCT045 27/12 Q1021
15:00
V
27 °C 10 km+ - Var Var 4 kt METAR SBBR 271800Z VRB04KT 9999 SCT045 27/13 Q1021
14:00
V
27 °C 10 km+ - 060° 060° 6 kt METAR SBBR 271700Z 06006KT 020V150 9999 FEW045 27/14 Q1021
13:00
V
26 °C 10 km+ - 090° 090° 7 kt METAR SBBR 271600Z 09007KT 030V140 9999 FEW045 26/14 Q1022
12:00
V
25 °C 10 km+ - 070° 070° 6 kt METAR SBBR 271500Z 07006KT 010V150 CAVOK 25/15 Q1023
11:00
V
24 °C 10 km+ - 080° 080° 11 kt METAR SBBR 271400Z 08011KT 050V110 CAVOK 24/15 Q1024
10:00
V
22 °C 10 km+ - 070° 070° 8 kt METAR SBBR 271300Z 07008KT 040V110 CAVOK 22/14 Q1024
09:00
V
20 °C 10 km+ - 080° 080° 7 kt METAR SBBR 271200Z 08007KT 040V110 CAVOK 20/14 Q1024
08:00
V
18 °C 10 km+ - Var Var 1 kt METAR SBBR 271100Z VRB01KT CAVOK 18/13 Q1023
07:00
V
15 °C 10 km+ - Var Var 2 kt METAR SBBR 271000Z VRB02KT CAVOK 15/12 Q1022
06:00
V
13 °C 10 km+ - 290° 290° 3 kt METAR SBBR 270900Z 29003KT CAVOK 13/12 Q1022
05:00
V
14 °C 10 km+ - 190° 190° 1 kt METAR SBBR 270800Z 19001KT CAVOK 14/12 Q1021
04:00
V
14 °C 10 km+ - 230° 230° 1 kt METAR SBBR 270700Z 23001KT CAVOK 14/13 Q1021
03:00
V
14 °C 10 km+ - 250° 250° 1 kt METAR SBBR 270600Z 25001KT CAVOK 14/13 Q1021
Cambiar esta información